sensor_id;sensor_type;location;lat;lon;timestamp;temperature;humidity
19680;DHT22;9989;48.962;9.182;2023-08-17T00:01:44;22.60;99.90
19680;DHT22;9989;48.962;9.182;2023-08-17T00:04:10;22.60;99.90
19680;DHT22;9989;48.962;9.182;2023-08-17T00:06:36;22.60;99.90
19680;DHT22;9989;48.962;9.182;2023-08-17T00:09:01;22.60;99.90
19680;DHT22;9989;48.962;9.182;2023-08-17T00:11:29;22.50;99.90
19680;DHT22;9989;48.962;9.182;2023-08-17T00:13:55;22.50;99.90
19680;DHT22;9989;48.962;9.182;2023-08-17T00:16:20;22.50;99.90
19680;DHT22;9989;48.962;9.182;2023-08-17T00:18:46;22.50;99.90
19680;DHT22;9989;48.962;9.182;2023-08-17T00:21:11;22.40;99.90
19680;DHT22;9989;48.962;9.182;2023-08-17T00:23:38;22.40;99.90
19680;DHT22;9989;48.962;9.182;2023-08-17T00:26:03;22.40;99.90
19680;DHT22;9989;48.962;9.182;2023-08-17T00:28:29;22.30;99.90
19680;DHT22;9989;48.962;9.182;2023-08-17T00:30:54;22.30;99.90
19680;DHT22;9989;48.962;9.182;2023-08-17T00:33:20;22.20;99.90
19680;DHT22;9989;48.962;9.182;2023-08-17T00:35:46;22.20;99.90
19680;DHT22;9989;48.962;9.182;2023-08-17T00:38:12;22.20;99.90
19680;DHT22;9989;48.962;9.182;2023-08-17T00:40:38;22.10;99.90
19680;DHT22;9989;48.962;9.182;2023-08-17T00:43:04;22.10;99.90
19680;DHT22;9989;48.962;9.182;2023-08-17T00:45:31;22.10;99.90
19680;DHT22;9989;48.962;9.182;2023-08-17T00:47:57;22.10;99.90
19680;DHT22;9989;48.962;9.182;2023-08-17T00:50:25;22.00;99.90
19680;DHT22;9989;48.962;9.182;2023-08-17T00:52:52;22.10;99.90
19680;DHT22;9989;48.962;9.182;2023-08-17T00:55:19;22.00;99.90
19680;DHT22;9989;48.962;9.182;2023-08-17T00:57:45;22.00;99.90
19680;DHT22;9989;48.962;9.182;2023-08-17T01:00:12;22.00;99.90
19680;DHT22;9989;48.962;9.182;2023-08-17T01:02:42;22.00;99.90
19680;DHT22;9989;48.962;9.182;2023-08-17T01:05:08;22.00;99.90
19680;DHT22;9989;48.962;9.182;2023-08-17T01:07:34;22.00;99.90
19680;DHT22;9989;48.962;9.182;2023-08-17T01:10:02;22.00;99.90
19680;DHT22;9989;48.962;9.182;2023-08-17T01:12:33;22.00;99.90
19680;DHT22;9989;48.962;9.182;2023-08-17T01:15:34;22.00;99.90
19680;DHT22;9989;48.962;9.182;2023-08-17T01:18:28;22.00;99.90
19680;DHT22;9989;48.962;9.182;2023-08-17T01:20:56;22.00;99.90
19680;DHT22;9989;48.962;9.182;2023-08-17T01:23:22;22.00;99.90
19680;DHT22;9989;48.962;9.182;2023-08-17T01:25:48;22.00;99.90
19680;DHT22;9989;48.962;9.182;2023-08-17T01:28:14;22.00;99.90
19680;DHT22;9989;48.962;9.182;2023-08-17T01:30:47;22.00;99.90
19680;DHT22;9989;48.962;9.182;2023-08-17T01:33:23;22.00;99.90
19680;DHT22;9989;48.962;9.182;2023-08-17T01:36:26;22.00;99.90
19680;DHT22;9989;48.962;9.182;2023-08-17T01:38:56;21.90;99.90
19680;DHT22;9989;48.962;9.182;2023-08-17T01:41:23;21.90;99.90
19680;DHT22;9989;48.962;9.182;2023-08-17T01:43:50;21.90;99.90
19680;DHT22;9989;48.962;9.182;2023-08-17T01:46:17;21.90;99.90
19680;DHT22;9989;48.962;9.182;2023-08-17T01:48:44;21.90;99.90
19680;DHT22;9989;48.962;9.182;2023-08-17T01:51:11;21.90;99.90
19680;DHT22;9989;48.962;9.182;2023-08-17T01:53:37;21.80;99.90
19680;DHT22;9989;48.962;9.182;2023-08-17T01:56:03;21.80;99.90
19680;DHT22;9989;48.962;9.182;2023-08-17T01:58:28;21.80;99.90
19680;DHT22;9989;48.962;9.182;2023-08-17T02:00:54;21.80;99.90
19680;DHT22;9989;48.962;9.182;2023-08-17T02:03:19;21.80;99.90
19680;DHT22;9989;48.962;9.182;2023-08-17T02:05:46;21.70;99.90
19680;DHT22;9989;48.962;9.182;2023-08-17T02:08:11;21.70;99.90
19680;DHT22;9989;48.962;9.182;2023-08-17T02:10:37;21.70;99.90
19680;DHT22;9989;48.962;9.182;2023-08-17T02:13:03;21.70;99.90
19680;DHT22;9989;48.962;9.182;2023-08-17T02:15:29;21.70;99.90
19680;DHT22;9989;48.962;9.182;2023-08-17T02:17:54;21.60;99.90
19680;DHT22;9989;48.962;9.182;2023-08-17T02:20:20;21.60;99.90
19680;DHT22;9989;48.962;9.182;2023-08-17T02:22:46;21.60;99.90
19680;DHT22;9989;48.962;9.182;2023-08-17T02:25:11;21.60;99.90
19680;DHT22;9989;48.962;9.182;2023-08-17T02:27:37;21.60;99.90
19680;DHT22;9989;48.962;9.182;2023-08-17T02:30:06;21.60;99.90
19680;DHT22;9989;48.962;9.182;2023-08-17T02:32:32;21.60;99.90
19680;DHT22;9989;48.962;9.182;2023-08-17T02:34:57;21.60;99.90
19680;DHT22;9989;48.962;9.182;2023-08-17T02:37:23;21.60;99.90
19680;DHT22;9989;48.962;9.182;2023-08-17T02:39:48;21.60;99.90
19680;DHT22;9989;48.962;9.182;2023-08-17T02:42:14;21.60;99.90
19680;DHT22;9989;48.962;9.182;2023-08-17T02:44:40;21.60;99.90
19680;DHT22;9989;48.962;9.182;2023-08-17T02:47:05;21.60;99.90
19680;DHT22;9989;48.962;9.182;2023-08-17T02:49:31;21.60;99.90
19680;DHT22;9989;48.962;9.182;2023-08-17T02:51:56;21.60;99.90
19680;DHT22;9989;48.962;9.182;2023-08-17T02:54:22;21.60;99.90
19680;DHT22;9989;48.962;9.182;2023-08-17T02:56:48;21.60;99.90
19680;DHT22;9989;48.962;9.182;2023-08-17T02:59:13;21.60;99.90
19680;DHT22;9989;48.962;9.182;2023-08-17T03:01:39;21.60;99.90
19680;DHT22;9989;48.962;9.182;2023-08-17T03:04:05;21.60;99.90
19680;DHT22;9989;48.962;9.182;2023-08-17T03:06:30;21.60;99.90
19680;DHT22;9989;48.962;9.182;2023-08-17T03:08:56;21.60;99.90
19680;DHT22;9989;48.962;9.182;2023-08-17T03:11:22;21.60;99.90
19680;DHT22;9989;48.962;9.182;2023-08-17T03:13:47;21.60;99.90
19680;DHT22;9989;48.962;9.182;2023-08-17T03:16:14;21.70;99.90
19680;DHT22;9989;48.962;9.182;2023-08-17T03:18:41;21.70;99.90
19680;DHT22;9989;48.962;9.182;2023-08-17T03:21:06;21.70;99.90
19680;DHT22;9989;48.962;9.182;2023-08-17T03:23:32;21.70;99.90
19680;DHT22;9989;48.962;9.182;2023-08-17T03:25:58;21.70;99.90
19680;DHT22;9989;48.962;9.182;2023-08-17T03:28:23;21.80;99.90
19680;DHT22;9989;48.962;9.182;2023-08-17T03:30:54;21.80;99.90
19680;DHT22;9989;48.962;9.182;2023-08-17T03:33:20;21.70;99.90
19680;DHT22;9989;48.962;9.182;2023-08-17T03:35:46;21.70;99.90
19680;DHT22;9989;48.962;9.182;2023-08-17T03:38:11;21.70;99.90
19680;DHT22;9989;48.962;9.182;2023-08-17T03:40:37;21.60;99.90
19680;DHT22;9989;48.962;9.182;2023-08-17T03:43:03;21.60;99.90
19680;DHT22;9989;48.962;9.182;2023-08-17T03:45:29;21.60;99.90
19680;DHT22;9989;48.962;9.182;2023-08-17T03:47:56;21.60;99.90
19680;DHT22;9989;48.962;9.182;2023-08-17T03:50:21;21.60;99.90
19680;DHT22;9989;48.962;9.182;2023-08-17T03:52:47;21.60;99.90
19680;DHT22;9989;48.962;9.182;2023-08-17T03:55:13;21.60;99.90
19680;DHT22;9989;48.962;9.182;2023-08-17T03:57:38;21.60;99.90
19680;DHT22;9989;48.962;9.182;2023-08-17T04:00:05;21.60;99.90
19680;DHT22;9989;48.962;9.182;2023-08-17T04:02:31;21.60;99.90
19680;DHT22;9989;48.962;9.182;2023-08-17T04:04:57;21.70;99.90
19680;DHT22;9989;48.962;9.182;2023-08-17T04:07:23;21.70;99.90
19680;DHT22;9989;48.962;9.182;2023-08-17T04:09:49;21.60;99.90
19680;DHT22;9989;48.962;9.182;2023-08-17T04:12:14;21.60;99.90
19680;DHT22;9989;48.962;9.182;2023-08-17T04:14:40;21.70;99.90
19680;DHT22;9989;48.962;9.182;2023-08-17T04:17:06;21.60;99.90
19680;DHT22;9989;48.962;9.182;2023-08-17T04:19:32;21.60;99.90
19680;DHT22;9989;48.962;9.182;2023-08-17T04:21:57;21.70;99.90
19680;DHT22;9989;48.962;9.182;2023-08-17T04:24:23;21.60;99.90
19680;DHT22;9989;48.962;9.182;2023-08-17T04:26:49;21.60;99.90
19680;DHT22;9989;48.962;9.182;2023-08-17T04:29:15;21.70;99.90
19680;DHT22;9989;48.962;9.182;2023-08-17T04:31:40;21.70;99.90
19680;DHT22;9989;48.962;9.182;2023-08-17T04:34:06;21.80;99.90
19680;DHT22;9989;48.962;9.182;2023-08-17T04:36:32;21.80;99.90
19680;DHT22;9989;48.962;9.182;2023-08-17T04:38:58;21.80;99.90
19680;DHT22;9989;48.962;9.182;2023-08-17T04:41:23;21.80;99.90
19680;DHT22;9989;48.962;9.182;2023-08-17T04:43:49;21.80;99.90
19680;DHT22;9989;48.962;9.182;2023-08-17T04:46:15;21.80;99.90
19680;DHT22;9989;48.962;9.182;2023-08-17T04:48:40;21.80;99.90
19680;DHT22;9989;48.962;9.182;2023-08-17T04:51:06;21.80;99.90
19680;DHT22;9989;48.962;9.182;2023-08-17T04:53:32;21.80;99.90
19680;DHT22;9989;48.962;9.182;2023-08-17T04:55:58;21.80;99.90
19680;DHT22;9989;48.962;9.182;2023-08-17T04:58:24;21.80;99.90
19680;DHT22;9989;48.962;9.182;2023-08-17T05:00:51;21.80;99.90
19680;DHT22;9989;48.962;9.182;2023-08-17T05:03:16;21.80;99.90
19680;DHT22;9989;48.962;9.182;2023-08-17T05:05:42;21.80;99.90
19680;DHT22;9989;48.962;9.182;2023-08-17T05:08:08;21.80;99.90
19680;DHT22;9989;48.962;9.182;2023-08-17T05:10:34;21.80;99.90
19680;DHT22;9989;48.962;9.182;2023-08-17T05:13:00;21.90;99.90
19680;DHT22;9989;48.962;9.182;2023-08-17T05:15:25;21.90;99.90
19680;DHT22;9989;48.962;9.182;2023-08-17T05:17:51;21.90;99.90
19680;DHT22;9989;48.962;9.182;2023-08-17T05:20:16;22.00;99.90
19680;DHT22;9989;48.962;9.182;2023-08-17T05:22:42;21.90;99.90
19680;DHT22;9989;48.962;9.182;2023-08-17T05:25:08;21.90;99.90
19680;DHT22;9989;48.962;9.182;2023-08-17T05:27:34;22.00;99.90
19680;DHT22;9989;48.962;9.182;2023-08-17T05:30:00;22.00;99.90
19680;DHT22;9989;48.962;9.182;2023-08-17T05:32:25;22.00;99.90
19680;DHT22;9989;48.962;9.182;2023-08-17T05:34:51;22.10;99.90
19680;DHT22;9989;48.962;9.182;2023-08-17T05:37:17;22.10;99.90
19680;DHT22;9989;48.962;9.182;2023-08-17T05:39:43;22.20;99.90
19680;DHT22;9989;48.962;9.182;2023-08-17T05:42:09;22.20;99.90
19680;DHT22;9989;48.962;9.182;2023-08-17T05:44:35;22.30;99.90
19680;DHT22;9989;48.962;9.182;2023-08-17T05:47:01;22.40;99.90
19680;DHT22;9989;48.962;9.182;2023-08-17T05:49:26;22.40;99.90
19680;DHT22;9989;48.962;9.182;2023-08-17T05:51:52;22.40;99.90
19680;DHT22;9989;48.962;9.182;2023-08-17T05:54:17;22.40;99.90
19680;DHT22;9989;48.962;9.182;2023-08-17T05:56:43;22.40;99.90
19680;DHT22;9989;48.962;9.182;2023-08-17T05:59:13;22.50;99.90
19680;DHT22;9989;48.962;9.182;2023-08-17T06:01:39;22.50;99.90
19680;DHT22;9989;48.962;9.182;2023-08-17T06:04:05;22.50;99.90
19680;DHT22;9989;48.962;9.182;2023-08-17T06:06:31;22.60;99.90
19680;DHT22;9989;48.962;9.182;2023-08-17T06:08:57;22.60;99.90
19680;DHT22;9989;48.962;9.182;2023-08-17T06:11:22;22.70;99.90
19680;DHT22;9989;48.962;9.182;2023-08-17T06:13:49;22.80;99.90
19680;DHT22;9989;48.962;9.182;2023-08-17T06:16:15;22.90;99.90
19680;DHT22;9989;48.962;9.182;2023-08-17T06:18:41;22.90;99.90
19680;DHT22;9989;48.962;9.182;2023-08-17T06:21:07;23.00;99.90
19680;DHT22;9989;48.962;9.182;2023-08-17T06:23:33;23.00;99.90
19680;DHT22;9989;48.962;9.182;2023-08-17T06:25:59;23.10;99.90
19680;DHT22;9989;48.962;9.182;2023-08-17T06:28:26;23.10;99.90
19680;DHT22;9989;48.962;9.182;2023-08-17T06:30:52;23.00;99.90
19680;DHT22;9989;48.962;9.182;2023-08-17T06:33:19;23.10;99.90
19680;DHT22;9989;48.962;9.182;2023-08-17T06:35:44;23.10;99.90
19680;DHT22;9989;48.962;9.182;2023-08-17T06:38:10;23.10;99.90
19680;DHT22;9989;48.962;9.182;2023-08-17T06:40:35;23.10;99.90
19680;DHT22;9989;48.962;9.182;2023-08-17T06:43:01;23.10;99.90
19680;DHT22;9989;48.962;9.182;2023-08-17T06:45:27;23.10;99.90
19680;DHT22;9989;48.962;9.182;2023-08-17T06:47:52;23.10;99.90
19680;DHT22;9989;48.962;9.182;2023-08-17T06:50:18;23.10;99.90
19680;DHT22;9989;48.962;9.182;2023-08-17T06:52:44;23.20;99.90
19680;DHT22;9989;48.962;9.182;2023-08-17T06:55:10;23.20;99.90
19680;DHT22;9989;48.962;9.182;2023-08-17T06:57:36;23.30;99.90
19680;DHT22;9989;48.962;9.182;2023-08-17T07:00:02;23.30;99.90
19680;DHT22;9989;48.962;9.182;2023-08-17T07:02:30;23.30;99.90
19680;DHT22;9989;48.962;9.182;2023-08-17T07:04:56;23.30;99.90
19680;DHT22;9989;48.962;9.182;2023-08-17T07:07:22;23.30;99.90
19680;DHT22;9989;48.962;9.182;2023-08-17T07:09:47;23.30;99.90
19680;DHT22;9989;48.962;9.182;2023-08-17T07:12:13;23.40;99.90
19680;DHT22;9989;48.962;9.182;2023-08-17T07:14:39;23.50;99.90
19680;DHT22;9989;48.962;9.182;2023-08-17T07:17:04;23.50;99.90
19680;DHT22;9989;48.962;9.182;2023-08-17T07:19:30;23.50;99.90
19680;DHT22;9989;48.962;9.182;2023-08-17T07:21:55;23.60;99.90
19680;DHT22;9989;48.962;9.182;2023-08-17T07:24:21;23.70;99.90
19680;DHT22;9989;48.962;9.182;2023-08-17T07:26:47;23.70;99.90
19680;DHT22;9989;48.962;9.182;2023-08-17T07:29:12;23.80;99.90
19680;DHT22;9989;48.962;9.182;2023-08-17T07:31:38;23.90;99.90
19680;DHT22;9989;48.962;9.182;2023-08-17T07:34:07;24.00;99.90
19680;DHT22;9989;48.962;9.182;2023-08-17T07:36:33;24.20;99.90
19680;DHT22;9989;48.962;9.182;2023-08-17T07:38:59;24.20;99.90
19680;DHT22;9989;48.962;9.182;2023-08-17T07:41:26;24.40;99.90
19680;DHT22;9989;48.962;9.182;2023-08-17T07:43:52;24.40;99.90
19680;DHT22;9989;48.962;9.182;2023-08-17T07:46:18;24.50;99.90
19680;DHT22;9989;48.962;9.182;2023-08-17T07:48:43;24.60;99.90
19680;DHT22;9989;48.962;9.182;2023-08-17T07:51:09;24.60;99.90
19680;DHT22;9989;48.962;9.182;2023-08-17T07:53:35;24.60;99.90
19680;DHT22;9989;48.962;9.182;2023-08-17T07:56:00;24.60;99.90
19680;DHT22;9989;48.962;9.182;2023-08-17T07:58:26;24.70;99.90
19680;DHT22;9989;48.962;9.182;2023-08-17T08:00:52;24.70;99.90
19680;DHT22;9989;48.962;9.182;2023-08-17T08:03:17;24.80;99.90
19680;DHT22;9989;48.962;9.182;2023-08-17T08:05:43;25.00;99.90
19680;DHT22;9989;48.962;9.182;2023-08-17T08:08:09;25.00;99.90
19680;DHT22;9989;48.962;9.182;2023-08-17T08:10:34;25.10;99.90
19680;DHT22;9989;48.962;9.182;2023-08-17T08:13:00;25.10;99.90
19680;DHT22;9989;48.962;9.182;2023-08-17T08:15:25;25.20;99.90
19680;DHT22;9989;48.962;9.182;2023-08-17T08:17:51;25.30;99.90
19680;DHT22;9989;48.962;9.182;2023-08-17T08:20:17;25.40;99.90
19680;DHT22;9989;48.962;9.182;2023-08-17T08:22:42;25.50;99.90
19680;DHT22;9989;48.962;9.182;2023-08-17T08:25:08;25.60;99.90
19680;DHT22;9989;48.962;9.182;2023-08-17T08:27:34;25.70;99.90
19680;DHT22;9989;48.962;9.182;2023-08-17T08:29:59;25.90;99.90
19680;DHT22;9989;48.962;9.182;2023-08-17T08:32:25;26.10;99.90
19680;DHT22;9989;48.962;9.182;2023-08-17T08:34:50;26.20;99.90
19680;DHT22;9989;48.962;9.182;2023-08-17T08:37:16;26.30;99.90
19680;DHT22;9989;48.962;9.182;2023-08-17T08:39:53;26.30;99.90
19680;DHT22;9989;48.962;9.182;2023-08-17T08:42:24;26.40;99.90
19680;DHT22;9989;48.962;9.182;2023-08-17T08:44:50;26.30;99.90
19680;DHT22;9989;48.962;9.182;2023-08-17T08:47:17;26.30;99.90
19680;DHT22;9989;48.962;9.182;2023-08-17T08:49:59;26.30;99.90
19680;DHT22;9989;48.962;9.182;2023-08-17T08:52:34;26.30;99.90
19680;DHT22;9989;48.962;9.182;2023-08-17T08:55:10;26.30;99.90
19680;DHT22;9989;48.962;9.182;2023-08-17T08:57:37;26.30;99.90
19680;DHT22;9989;48.962;9.182;2023-08-17T09:00:03;26.30;99.90
19680;DHT22;9989;48.962;9.182;2023-08-17T09:02:30;26.40;99.90
19680;DHT22;9989;48.962;9.182;2023-08-17T09:04:56;26.40;99.90
19680;DHT22;9989;48.962;9.182;2023-08-17T09:07:22;26.60;99.90
19680;DHT22;9989;48.962;9.182;2023-08-17T09:09:49;26.70;99.90
19680;DHT22;9989;48.962;9.182;2023-08-17T09:12:15;26.80;99.90
19680;DHT22;9989;48.962;9.182;2023-08-17T09:14:40;26.80;99.90
19680;DHT22;9989;48.962;9.182;2023-08-17T09:17:07;27.00;99.90
19680;DHT22;9989;48.962;9.182;2023-08-17T09:19:33;27.10;99.90
19680;DHT22;9989;48.962;9.182;2023-08-17T09:22:00;27.30;99.90
19680;DHT22;9989;48.962;9.182;2023-08-17T09:24:36;27.60;99.90
19680;DHT22;9989;48.962;9.182;2023-08-17T09:27:03;27.70;99.90
19680;DHT22;9989;48.962;9.182;2023-08-17T09:29:29;27.90;99.90
19680;DHT22;9989;48.962;9.182;2023-08-17T09:32:05;28.00;99.90
19680;DHT22;9989;48.962;9.182;2023-08-17T09:34:32;28.20;99.90
19680;DHT22;9989;48.962;9.182;2023-08-17T09:37:03;28.30;99.90
19680;DHT22;9989;48.962;9.182;2023-08-17T09:39:29;28.40;99.90
19680;DHT22;9989;48.962;9.182;2023-08-17T09:41:55;28.50;99.90
19680;DHT22;9989;48.962;9.182;2023-08-17T09:44:20;28.60;99.90
19680;DHT22;9989;48.962;9.182;2023-08-17T09:46:47;28.70;99.90
19680;DHT22;9989;48.962;9.182;2023-08-17T09:49:13;28.80;99.90
19680;DHT22;9989;48.962;9.182;2023-08-17T09:51:42;28.90;99.90
19680;DHT22;9989;48.962;9.182;2023-08-17T09:54:22;29.00;99.90
19680;DHT22;9989;48.962;9.182;2023-08-17T09:56:58;29.10;99.90
19680;DHT22;9989;48.962;9.182;2023-08-17T09:59:23;29.30;99.90
19680;DHT22;9989;48.962;9.182;2023-08-17T10:01:51;29.40;99.90
19680;DHT22;9989;48.962;9.182;2023-08-17T10:04:23;29.60;99.90
19680;DHT22;9989;48.962;9.182;2023-08-17T10:06:52;29.70;99.90
19680;DHT22;9989;48.962;9.182;2023-08-17T10:09:25;29.90;99.90
19680;DHT22;9989;48.962;9.182;2023-08-17T10:11:52;30.10;99.90
19680;DHT22;9989;48.962;9.182;2023-08-17T10:14:26;30.20;99.90
19680;DHT22;9989;48.962;9.182;2023-08-17T10:16:59;30.20;99.90
19680;DHT22;9989;48.962;9.182;2023-08-17T10:19:35;30.00;99.90
19680;DHT22;9989;48.962;9.182;2023-08-17T10:22:15;29.80;99.90
19680;DHT22;9989;48.962;9.182;2023-08-17T10:24:42;29.80;99.90
19680;DHT22;9989;48.962;9.182;2023-08-17T10:27:10;29.70;99.90
19680;DHT22;9989;48.962;9.182;2023-08-17T10:29:38;29.60;99.90
19680;DHT22;9989;48.962;9.182;2023-08-17T10:32:05;29.60;99.90
19680;DHT22;9989;48.962;9.182;2023-08-17T10:34:34;29.70;99.90
19680;DHT22;9989;48.962;9.182;2023-08-17T10:37:00;29.90;99.90
19680;DHT22;9989;48.962;9.182;2023-08-17T10:39:28;30.00;99.90
19680;DHT22;9989;48.962;9.182;2023-08-17T10:41:55;30.10;99.90
19680;DHT22;9989;48.962;9.182;2023-08-17T10:50:05;30.50;99.90
19680;DHT22;9989;48.962;9.182;2023-08-17T10:52:34;30.70;99.90
19680;DHT22;9989;48.962;9.182;2023-08-17T10:55:05;30.80;99.90
19680;DHT22;9989;48.962;9.182;2023-08-17T10:57:35;31.00;99.90
19680;DHT22;9989;48.962;9.182;2023-08-17T11:00:23;31.10;99.90
19680;DHT22;9989;48.962;9.182;2023-08-17T11:03:00;31.30;99.90
19680;DHT22;9989;48.962;9.182;2023-08-17T11:05:46;31.50;99.90
19680;DHT22;9989;48.962;9.182;2023-08-17T11:11:05;31.90;99.90
19680;DHT22;9989;48.962;9.182;2023-08-17T11:13:39;32.00;99.90
19680;DHT22;9989;48.962;9.182;2023-08-17T11:16:06;32.10;99.90
19680;DHT22;9989;48.962;9.182;2023-08-17T11:18:33;32.30;99.90
19680;DHT22;9989;48.962;9.182;2023-08-17T11:20:59;32.40;99.90
19680;DHT22;9989;48.962;9.182;2023-08-17T11:23:28;32.60;99.90
19680;DHT22;9989;48.962;9.182;2023-08-17T11:25:55;32.80;99.90
19680;DHT22;9989;48.962;9.182;2023-08-17T11:28:21;32.90;99.90
19680;DHT22;9989;48.962;9.182;2023-08-17T11:31:00;33.00;99.90
19680;DHT22;9989;48.962;9.182;2023-08-17T11:33:27;33.10;99.90
19680;DHT22;9989;48.962;9.182;2023-08-17T11:36:03;33.20;99.90
19680;DHT22;9989;48.962;9.182;2023-08-17T11:38:34;33.30;99.90
19680;DHT22;9989;48.962;9.182;2023-08-17T11:41:01;33.40;99.90
19680;DHT22;9989;48.962;9.182;2023-08-17T11:43:29;33.50;99.90
19680;DHT22;9989;48.962;9.182;2023-08-17T11:45:55;33.60;99.90
19680;DHT22;9989;48.962;9.182;2023-08-17T11:48:21;33.70;99.90
19680;DHT22;9989;48.962;9.182;2023-08-17T11:50:48;33.90;99.90
19680;DHT22;9989;48.962;9.182;2023-08-17T11:53:14;33.90;99.90
19680;DHT22;9989;48.962;9.182;2023-08-17T11:55:40;34.00;99.90
19680;DHT22;9989;48.962;9.182;2023-08-17T11:58:06;33.90;99.90
19680;DHT22;9989;48.962;9.182;2023-08-17T12:00:43;33.90;99.90
19680;DHT22;9989;48.962;9.182;2023-08-17T12:03:15;34.00;99.90
19680;DHT22;9989;48.962;9.182;2023-08-17T12:05:41;34.10;99.90
19680;DHT22;9989;48.962;9.182;2023-08-17T12:08:07;34.30;99.90
19680;DHT22;9989;48.962;9.182;2023-08-17T12:10:33;34.50;99.90
19680;DHT22;9989;48.962;9.182;2023-08-17T12:13:00;34.60;99.90
19680;DHT22;9989;48.962;9.182;2023-08-17T12:15:33;34.70;99.90
19680;DHT22;9989;48.962;9.182;2023-08-17T12:18:01;34.80;99.90
19680;DHT22;9989;48.962;9.182;2023-08-17T12:20:27;34.80;99.90
19680;DHT22;9989;48.962;9.182;2023-08-17T12:22:53;34.70;99.60
19680;DHT22;9989;48.962;9.182;2023-08-17T12:25:21;34.60;99.50
19680;DHT22;9989;48.962;9.182;2023-08-17T12:27:48;34.40;99.80
19680;DHT22;9989;48.962;9.182;2023-08-17T12:30:27;34.20;99.90
19680;DHT22;9989;48.962;9.182;2023-08-17T12:32:53;34.00;99.20
19680;DHT22;9989;48.962;9.182;2023-08-17T12:35:19;33.90;99.40
19680;DHT22;9989;48.962;9.182;2023-08-17T12:37:47;33.60;99.50
19680;DHT22;9989;48.962;9.182;2023-08-17T12:40:13;33.30;99.60
19680;DHT22;9989;48.962;9.182;2023-08-17T12:42:39;33.00;99.90
19680;DHT22;9989;48.962;9.182;2023-08-17T12:45:04;32.70;99.90
19680;DHT22;9989;48.962;9.182;2023-08-17T12:47:30;32.50;99.90
19680;DHT22;9989;48.962;9.182;2023-08-17T12:49:56;32.20;99.90
19680;DHT22;9989;48.962;9.182;2023-08-17T12:52:21;31.90;99.90
19680;DHT22;9989;48.962;9.182;2023-08-17T12:54:47;31.70;99.90
19680;DHT22;9989;48.962;9.182;2023-08-17T12:57:12;31.50;99.90
19680;DHT22;9989;48.962;9.182;2023-08-17T12:59:38;31.30;99.90
19680;DHT22;9989;48.962;9.182;2023-08-17T13:02:04;31.00;99.90
19680;DHT22;9989;48.962;9.182;2023-08-17T13:04:29;30.80;99.90
19680;DHT22;9989;48.962;9.182;2023-08-17T13:06:55;30.70;99.90
19680;DHT22;9989;48.962;9.182;2023-08-17T13:09:21;30.50;99.90
19680;DHT22;9989;48.962;9.182;2023-08-17T13:11:46;30.30;99.90
19680;DHT22;9989;48.962;9.182;2023-08-17T13:14:14;30.20;99.90
19680;DHT22;9989;48.962;9.182;2023-08-17T13:16:39;30.00;99.90
19680;DHT22;9989;48.962;9.182;2023-08-17T13:19:05;29.80;99.90
19680;DHT22;9989;48.962;9.182;2023-08-17T13:21:30;29.60;99.90
19680;DHT22;9989;48.962;9.182;2023-08-17T13:23:56;29.50;99.90
19680;DHT22;9989;48.962;9.182;2023-08-17T13:26:25;29.30;99.90
19680;DHT22;9989;48.962;9.182;2023-08-17T13:28:50;29.10;99.90
19680;DHT22;9989;48.962;9.182;2023-08-17T13:31:16;28.90;99.90
19680;DHT22;9989;48.962;9.182;2023-08-17T13:33:42;28.70;99.90
19680;DHT22;9989;48.962;9.182;2023-08-17T13:36:07;28.50;99.90
19680;DHT22;9989;48.962;9.182;2023-08-17T13:38:33;28.40;99.90
19680;DHT22;9989;48.962;9.182;2023-08-17T13:40:58;28.20;99.90
19680;DHT22;9989;48.962;9.182;2023-08-17T13:43:24;28.00;99.90
19680;DHT22;9989;48.962;9.182;2023-08-17T13:45:50;27.90;99.90
19680;DHT22;9989;48.962;9.182;2023-08-17T13:48:15;27.80;99.90
19680;DHT22;9989;48.962;9.182;2023-08-17T13:50:41;27.70;99.90
19680;DHT22;9989;48.962;9.182;2023-08-17T13:53:07;27.50;99.90
19680;DHT22;9989;48.962;9.182;2023-08-17T13:55:32;27.40;99.90
19680;DHT22;9989;48.962;9.182;2023-08-17T13:57:58;27.30;99.90
19680;DHT22;9989;48.962;9.182;2023-08-17T14:00:25;27.20;99.90
19680;DHT22;9989;48.962;9.182;2023-08-17T14:02:52;27.10;99.90
19680;DHT22;9989;48.962;9.182;2023-08-17T14:05:17;27.00;99.90
19680;DHT22;9989;48.962;9.182;2023-08-17T14:07:43;26.90;99.90
19680;DHT22;9989;48.962;9.182;2023-08-17T14:10:09;26.80;99.90
19680;DHT22;9989;48.962;9.182;2023-08-17T14:12:35;26.70;99.90
19680;DHT22;9989;48.962;9.182;2023-08-17T14:15:00;26.60;99.90
19680;DHT22;9989;48.962;9.182;2023-08-17T14:17:26;26.50;99.90
19680;DHT22;9989;48.962;9.182;2023-08-17T14:19:52;26.40;99.90
19680;DHT22;9989;48.962;9.182;2023-08-17T14:22:18;26.40;99.90
19680;DHT22;9989;48.962;9.182;2023-08-17T14:24:43;26.40;99.90
19680;DHT22;9989;48.962;9.182;2023-08-17T14:27:09;26.50;99.90
19680;DHT22;9989;48.962;9.182;2023-08-17T14:29:34;26.50;99.90
19680;DHT22;9989;48.962;9.182;2023-08-17T14:32:00;26.60;99.90
19680;DHT22;9989;48.962;9.182;2023-08-17T14:34:25;26.70;99.90
19680;DHT22;9989;48.962;9.182;2023-08-17T14:36:51;26.70;99.90
19680;DHT22;9989;48.962;9.182;2023-08-17T14:39:17;26.70;99.90
19680;DHT22;9989;48.962;9.182;2023-08-17T14:41:42;26.70;99.90
19680;DHT22;9989;48.962;9.182;2023-08-17T14:44:08;26.80;99.90
19680;DHT22;9989;48.962;9.182;2023-08-17T14:46:34;26.80;99.90
19680;DHT22;9989;48.962;9.182;2023-08-17T14:49:00;26.90;99.90
19680;DHT22;9989;48.962;9.182;2023-08-17T14:51:25;26.90;99.90
19680;DHT22;9989;48.962;9.182;2023-08-17T14:53:51;26.90;99.90
19680;DHT22;9989;48.962;9.182;2023-08-17T14:56:17;27.00;99.90
19680;DHT22;9989;48.962;9.182;2023-08-17T14:58:42;27.00;99.90
19680;DHT22;9989;48.962;9.182;2023-08-17T15:01:08;27.10;99.90
19680;DHT22;9989;48.962;9.182;2023-08-17T15:03:33;27.20;99.90
19680;DHT22;9989;48.962;9.182;2023-08-17T15:05:59;27.20;99.90
19680;DHT22;9989;48.962;9.182;2023-08-17T15:08:25;27.40;99.90
19680;DHT22;9989;48.962;9.182;2023-08-17T15:10:51;27.50;99.90
19680;DHT22;9989;48.962;9.182;2023-08-17T15:13:16;27.60;99.90
19680;DHT22;9989;48.962;9.182;2023-08-17T15:15:43;27.60;99.90
19680;DHT22;9989;48.962;9.182;2023-08-17T15:18:09;27.60;99.90
19680;DHT22;9989;48.962;9.182;2023-08-17T15:20:35;27.60;99.90
19680;DHT22;9989;48.962;9.182;2023-08-17T15:23:01;27.60;99.90
19680;DHT22;9989;48.962;9.182;2023-08-17T15:25:26;27.70;99.90
19680;DHT22;9989;48.962;9.182;2023-08-17T15:27:52;27.80;99.90
19680;DHT22;9989;48.962;9.182;2023-08-17T15:30:18;27.80;99.90
19680;DHT22;9989;48.962;9.182;2023-08-17T15:32:44;27.90;99.90
19680;DHT22;9989;48.962;9.182;2023-08-17T15:35:10;27.90;99.90
19680;DHT22;9989;48.962;9.182;2023-08-17T15:37:39;27.80;99.90
19680;DHT22;9989;48.962;9.182;2023-08-17T15:40:06;27.70;99.90
19680;DHT22;9989;48.962;9.182;2023-08-17T15:42:32;27.70;99.90
19680;DHT22;9989;48.962;9.182;2023-08-17T15:44:57;27.70;99.90
19680;DHT22;9989;48.962;9.182;2023-08-17T15:47:23;27.70;99.90
19680;DHT22;9989;48.962;9.182;2023-08-17T15:49:48;27.70;99.90
19680;DHT22;9989;48.962;9.182;2023-08-17T15:52:14;27.80;99.90